sensor_id;sensor_type;location;lat;lon;timestamp;pressure;altitude;pressure_sealevel;temperature;humidity
62124;BME280;48110;47.532;19.078;2023-02-12T00:01:18;101667.19;;;3.26;100.00
62124;BME280;48110;47.532;19.078;2023-02-12T00:04:27;101672.66;;;3.07;100.00
62124;BME280;48110;47.532;19.078;2023-02-12T00:07:34;101662.25;;;3.05;100.00
62124;BME280;48110;47.532;19.078;2023-02-12T00:10:50;101661.19;;;3.24;100.00
62124;BME280;48110;47.532;19.078;2023-02-12T00:13:56;101651.59;;;3.38;100.00
62124;BME280;48110;47.532;19.078;2023-02-12T00:17:05;101659.44;;;3.38;100.00
62124;BME280;48110;47.532;19.078;2023-02-12T00:20:13;101656.84;;;3.53;100.00
62124;BME280;48110;47.532;19.078;2023-02-12T00:23:20;101663.03;;;3.66;100.00
62124;BME280;48110;47.532;19.078;2023-02-12T00:26:27;101649.72;;;3.69;100.00
62124;BME280;48110;47.532;19.078;2023-02-12T00:29:33;101645.88;;;3.60;100.00
62124;BME280;48110;47.532;19.078;2023-02-12T00:32:41;101662.56;;;3.73;100.00
62124;BME280;48110;47.532;19.078;2023-02-12T00:35:55;101662.84;;;3.69;100.00
62124;BME280;48110;47.532;19.078;2023-02-12T00:39:03;101644.31;;;3.72;100.00
62124;BME280;48110;47.532;19.078;2023-02-12T00:42:11;101653.97;;;3.71;100.00
62124;BME280;48110;47.532;19.078;2023-02-12T00:45:22;101657.50;;;3.56;100.00
62124;BME280;48110;47.532;19.078;2023-02-12T00:48:32;101650.47;;;3.57;100.00
62124;BME280;48110;47.532;19.078;2023-02-12T00:51:37;101643.47;;;3.57;100.00
62124;BME280;48110;47.532;19.078;2023-02-12T00:54:44;101636.50;;;3.56;100.00
62124;BME280;48110;47.532;19.078;2023-02-12T00:57:51;101641.41;;;3.62;100.00
62124;BME280;48110;47.532;19.078;2023-02-12T01:00:57;101637.72;;;3.65;100.00
62124;BME280;48110;47.532;19.078;2023-02-12T01:04:05;101652.19;;;3.58;100.00
62124;BME280;48110;47.532;19.078;2023-02-12T01:07:15;101654.13;;;3.54;100.00
62124;BME280;48110;47.532;19.078;2023-02-12T01:10:21;101663.16;;;3.34;100.00
62124;BME280;48110;47.532;19.078;2023-02-12T01:13:30;101669.62;;;3.29;100.00
62124;BME280;48110;47.532;19.078;2023-02-12T01:16:43;101662.19;;;3.21;100.00
62124;BME280;48110;47.532;19.078;2023-02-12T01:19:49;101659.12;;;3.15;100.00
62124;BME280;48110;47.532;19.078;2023-02-12T01:22:58;101649.84;;;3.23;100.00
62124;BME280;48110;47.532;19.078;2023-02-12T01:26:09;101649.44;;;3.15;100.00
62124;BME280;48110;47.532;19.078;2023-02-12T01:29:17;101645.88;;;3.16;100.00
62124;BME280;48110;47.532;19.078;2023-02-12T01:32:25;101645.31;;;3.11;100.00
62124;BME280;48110;47.532;19.078;2023-02-12T01:35:33;101634.69;;;3.28;100.00
62124;BME280;48110;47.532;19.078;2023-02-12T01:38:43;101631.66;;;3.20;100.00
62124;BME280;48110;47.532;19.078;2023-02-12T01:41:54;101623.72;;;3.22;100.00
62124;BME280;48110;47.532;19.078;2023-02-12T01:48:23;101606.41;;;3.19;100.00
62124;BME280;48110;47.532;19.078;2023-02-12T01:51:34;101614.25;;;3.19;100.00
62124;BME280;48110;47.532;19.078;2023-02-12T01:54:43;101614.69;;;3.12;100.00
62124;BME280;48110;47.532;19.078;2023-02-12T01:57:53;101606.59;;;3.00;100.00
62124;BME280;48110;47.532;19.078;2023-02-12T02:01:03;101614.75;;;2.96;100.00
62124;BME280;48110;47.532;19.078;2023-02-12T02:04:18;101625.59;;;2.90;100.00
62124;BME280;48110;47.532;19.078;2023-02-12T02:07:27;101630.72;;;2.91;100.00
62124;BME280;48110;47.532;19.078;2023-02-12T02:10:43;101631.59;;;2.92;100.00
62124;BME280;48110;47.532;19.078;2023-02-12T02:13:53;101630.37;;;2.97;100.00
62124;BME280;48110;47.532;19.078;2023-02-12T02:20:46;101630.72;;;2.91;100.00
62124;BME280;48110;47.532;19.078;2023-02-12T02:33:57;101638.59;;;2.91;100.00
62124;BME280;48110;47.532;19.078;2023-02-12T02:37:28;101643.16;;;3.03;100.00
62124;BME280;48110;47.532;19.078;2023-02-12T02:40:41;101645.16;;;3.14;100.00
62124;BME280;48110;47.532;19.078;2023-02-12T02:43:54;101657.16;;;3.18;100.00
62124;BME280;48110;47.532;19.078;2023-02-12T02:47:04;101658.00;;;3.19;100.00
62124;BME280;48110;47.532;19.078;2023-02-12T02:50:15;101669.22;;;3.21;100.00
62124;BME280;48110;47.532;19.078;2023-02-12T02:53:23;101667.53;;;3.20;100.00
62124;BME280;48110;47.532;19.078;2023-02-12T02:56:34;101662.81;;;3.11;100.00
62124;BME280;48110;47.532;19.078;2023-02-12T02:59:43;101659.81;;;3.02;100.00
62124;BME280;48110;47.532;19.078;2023-02-12T03:02:57;101663.19;;;3.04;100.00
62124;BME280;48110;47.532;19.078;2023-02-12T03:09:39;101662.50;;;3.01;100.00
62124;BME280;48110;47.532;19.078;2023-02-12T03:12:47;101664.37;;;2.99;100.00
62124;BME280;48110;47.532;19.078;2023-02-12T03:16:03;101683.47;;;3.01;100.00
62124;BME280;48110;47.532;19.078;2023-02-12T03:19:22;101683.12;;;3.07;100.00
62124;BME280;48110;47.532;19.078;2023-02-12T03:22:30;101692.97;;;3.03;100.00
62124;BME280;48110;47.532;19.078;2023-02-12T03:25:43;101682.47;;;3.03;100.00
62124;BME280;48110;47.532;19.078;2023-02-12T03:29:00;101700.28;;;3.13;100.00
62124;BME280;48110;47.532;19.078;2023-02-12T03:32:10;101702.00;;;3.14;100.00
62124;BME280;48110;47.532;19.078;2023-02-12T03:38:43;101709.94;;;3.12;100.00
62124;BME280;48110;47.532;19.078;2023-02-12T03:42:04;101712.75;;;3.09;100.00
62124;BME280;48110;47.532;19.078;2023-02-12T03:45:15;101708.81;;;3.16;100.00
62124;BME280;48110;47.532;19.078;2023-02-12T03:48:29;101697.31;;;3.19;100.00
62124;BME280;48110;47.532;19.078;2023-02-12T03:51:41;101709.66;;;3.17;100.00
62124;BME280;48110;47.532;19.078;2023-02-12T03:54:52;101729.47;;;3.06;100.00
62124;BME280;48110;47.532;19.078;2023-02-12T03:58:01;101728.22;;;3.14;100.00
62124;BME280;48110;47.532;19.078;2023-02-12T04:01:09;101731.25;;;3.06;100.00
62124;BME280;48110;47.532;19.078;2023-02-12T04:04:17;101742.44;;;3.10;100.00
62124;BME280;48110;47.532;19.078;2023-02-12T04:07:30;101735.75;;;3.04;100.00
62124;BME280;48110;47.532;19.078;2023-02-12T04:20:53;101761.63;;;2.94;100.00
62124;BME280;48110;47.532;19.078;2023-02-12T04:24:09;101766.38;;;3.03;100.00
62124;BME280;48110;47.532;19.078;2023-02-12T04:27:21;101779.53;;;3.02;100.00
62124;BME280;48110;47.532;19.078;2023-02-12T04:30:34;101787.59;;;2.99;100.00
62124;BME280;48110;47.532;19.078;2023-02-12T04:33:46;101783.19;;;2.84;100.00
62124;BME280;48110;47.532;19.078;2023-02-12T04:37:04;101789.28;;;2.84;100.00
62124;BME280;48110;47.532;19.078;2023-02-12T04:40:14;101791.12;;;2.98;100.00
62124;BME280;48110;47.532;19.078;2023-02-12T04:43:27;101795.72;;;2.94;100.00
62124;BME280;48110;47.532;19.078;2023-02-12T04:46:41;101798.66;;;2.88;100.00
62124;BME280;48110;47.532;19.078;2023-02-12T04:49:51;101798.84;;;2.85;100.00
62124;BME280;48110;47.532;19.078;2023-02-12T04:52:59;101812.63;;;2.89;100.00
62124;BME280;48110;47.532;19.078;2023-02-12T04:56:07;101808.06;;;3.08;100.00
62124;BME280;48110;47.532;19.078;2023-02-12T04:59:19;101813.88;;;3.13;100.00
62124;BME280;48110;47.532;19.078;2023-02-12T05:02:30;101822.00;;;3.09;100.00
62124;BME280;48110;47.532;19.078;2023-02-12T05:05:39;101826.56;;;3.05;100.00
62124;BME280;48110;47.532;19.078;2023-02-12T05:08:48;101838.66;;;2.92;100.00
62124;BME280;48110;47.532;19.078;2023-02-12T05:11:56;101831.72;;;2.91;100.00
62124;BME280;48110;47.532;19.078;2023-02-12T05:15:05;101843.81;;;2.93;100.00
62124;BME280;48110;47.532;19.078;2023-02-12T05:18:14;101840.91;;;2.82;100.00
62124;BME280;48110;47.532;19.078;2023-02-12T05:21:26;101844.00;;;2.90;100.00
62124;BME280;48110;47.532;19.078;2023-02-12T05:24:33;101854.97;;;2.97;100.00
62124;BME280;48110;47.532;19.078;2023-02-12T05:27:46;101860.03;;;2.84;100.00
62124;BME280;48110;47.532;19.078;2023-02-12T05:30:54;101874.75;;;2.87;100.00
62124;BME280;48110;47.532;19.078;2023-02-12T05:34:05;101875.09;;;2.81;100.00
62124;BME280;48110;47.532;19.078;2023-02-12T05:37:14;101876.16;;;2.77;100.00
62124;BME280;48110;47.532;19.078;2023-02-12T05:40:23;101867.31;;;2.79;100.00
62124;BME280;48110;47.532;19.078;2023-02-12T05:43:31;101881.94;;;2.83;100.00
62124;BME280;48110;47.532;19.078;2023-02-12T05:46:39;101884.97;;;2.76;100.00
62124;BME280;48110;47.532;19.078;2023-02-12T05:49:46;101879.62;;;2.77;100.00
62124;BME280;48110;47.532;19.078;2023-02-12T05:52:58;101890.56;;;2.85;100.00
62124;BME280;48110;47.532;19.078;2023-02-12T05:56:15;101901.97;;;2.84;100.00
62124;BME280;48110;47.532;19.078;2023-02-12T05:59:25;101906.66;;;3.11;100.00
62124;BME280;48110;47.532;19.078;2023-02-12T06:02:32;101903.78;;;2.99;100.00
62124;BME280;48110;47.532;19.078;2023-02-12T06:05:41;101915.59;;;2.91;100.00
62124;BME280;48110;47.532;19.078;2023-02-12T06:08:47;101935.37;;;2.81;100.00
62124;BME280;48110;47.532;19.078;2023-02-12T06:11:57;101939.66;;;2.82;100.00
62124;BME280;48110;47.532;19.078;2023-02-12T06:15:05;101929.34;;;2.79;100.00
62124;BME280;48110;47.532;19.078;2023-02-12T06:18:13;101931.28;;;2.75;100.00
62124;BME280;48110;47.532;19.078;2023-02-12T06:21:23;101941.72;;;2.92;100.00
62124;BME280;48110;47.532;19.078;2023-02-12T06:24:31;101943.97;;;2.83;100.00
62124;BME280;48110;47.532;19.078;2023-02-12T06:27:37;101943.38;;;2.78;100.00
62124;BME280;48110;47.532;19.078;2023-02-12T06:30:47;101938.13;;;2.78;100.00
62124;BME280;48110;47.532;19.078;2023-02-12T06:33:57;101952.03;;;2.80;100.00
62124;BME280;48110;47.532;19.078;2023-02-12T06:37:07;101954.78;;;2.77;100.00
62124;BME280;48110;47.532;19.078;2023-02-12T06:40:14;101949.72;;;2.74;100.00
62124;BME280;48110;47.532;19.078;2023-02-12T06:43:21;101956.09;;;2.85;100.00
62124;BME280;48110;47.532;19.078;2023-02-12T06:46:27;101975.81;;;2.92;100.00
62124;BME280;48110;47.532;19.078;2023-02-12T06:49:36;101977.31;;;3.14;100.00
62124;BME280;48110;47.532;19.078;2023-02-12T06:52:48;101979.22;;;3.10;100.00
62124;BME280;48110;47.532;19.078;2023-02-12T06:55:59;101985.19;;;3.14;100.00
62124;BME280;48110;47.532;19.078;2023-02-12T06:59:09;101989.81;;;3.09;100.00
62124;BME280;48110;47.532;19.078;2023-02-12T07:02:18;101987.25;;;3.07;100.00
62124;BME280;48110;47.532;19.078;2023-02-12T07:05:25;101994.44;;;3.03;100.00
62124;BME280;48110;47.532;19.078;2023-02-12T07:08:34;101999.75;;;3.35;100.00
62124;BME280;48110;47.532;19.078;2023-02-12T07:11:46;102010.88;;;3.56;100.00
62124;BME280;48110;47.532;19.078;2023-02-12T07:14:54;102018.69;;;3.57;100.00
62124;BME280;48110;47.532;19.078;2023-02-12T07:18:04;102016.19;;;3.54;100.00
62124;BME280;48110;47.532;19.078;2023-02-12T07:21:11;102017.41;;;3.64;100.00
62124;BME280;48110;47.532;19.078;2023-02-12T07:24:19;102033.84;;;3.68;100.00
62124;BME280;48110;47.532;19.078;2023-02-12T07:27:26;102028.06;;;3.61;100.00
62124;BME280;48110;47.532;19.078;2023-02-12T07:30:32;102036.91;;;3.76;100.00
62124;BME280;48110;47.532;19.078;2023-02-12T07:33:43;102040.78;;;4.00;100.00
62124;BME280;48110;47.532;19.078;2023-02-12T07:36:51;102048.22;;;4.08;100.00
62124;BME280;48110;47.532;19.078;2023-02-12T07:39:59;102045.00;;;4.03;100.00
62124;BME280;48110;47.532;19.078;2023-02-12T07:43:06;102043.91;;;4.22;100.00
62124;BME280;48110;47.532;19.078;2023-02-12T07:46:23;102053.31;;;6.28;100.00
62124;BME280;48110;47.532;19.078;2023-02-12T07:49:35;102056.75;;;6.42;100.00
62124;BME280;48110;47.532;19.078;2023-02-12T07:52:44;102063.09;;;5.56;100.00
62124;BME280;48110;47.532;19.078;2023-02-12T07:55:51;102067.09;;;5.05;100.00
62124;BME280;48110;47.532;19.078;2023-02-12T07:59:02;102054.72;;;4.77;100.00
62124;BME280;48110;47.532;19.078;2023-02-12T08:02:09;102055.44;;;4.65;100.00
62124;BME280;48110;47.532;19.078;2023-02-12T08:05:17;102054.69;;;4.63;100.00
62124;BME280;48110;47.532;19.078;2023-02-12T08:08:26;102061.97;;;4.74;100.00
62124;BME280;48110;47.532;19.078;2023-02-12T08:11:34;102065.88;;;4.67;100.00
62124;BME280;48110;47.532;19.078;2023-02-12T08:14:44;102070.66;;;4.74;100.00
62124;BME280;48110;47.532;19.078;2023-02-12T08:17:55;102066.47;;;4.86;100.00
62124;BME280;48110;47.532;19.078;2023-02-12T08:24:12;102076.19;;;6.27;100.00
62124;BME280;48110;47.532;19.078;2023-02-12T08:27:20;102090.34;;;8.17;100.00
62124;BME280;48110;47.532;19.078;2023-02-12T08:30:27;102089.28;;;10.90;86.67
62124;BME280;48110;47.532;19.078;2023-02-12T08:33:35;102091.03;;;12.03;79.23
62124;BME280;48110;47.532;19.078;2023-02-12T08:36:43;102103.50;;;14.48;63.02
62124;BME280;48110;47.532;19.078;2023-02-12T08:39:52;102112.38;;;15.71;57.20
62124;BME280;48110;47.532;19.078;2023-02-12T08:43:02;102109.56;;;14.85;54.19
62124;BME280;48110;47.532;19.078;2023-02-12T08:46:11;102107.34;;;11.38;64.94
62124;BME280;48110;47.532;19.078;2023-02-12T08:49:20;102108.19;;;10.22;74.79
62124;BME280;48110;47.532;19.078;2023-02-12T08:52:27;102098.94;;;9.60;78.57
62124;BME280;48110;47.532;19.078;2023-02-12T08:55:34;102096.72;;;8.86;87.56
62124;BME280;48110;47.532;19.078;2023-02-12T08:58:43;102105.88;;;8.35;91.51
62124;BME280;48110;47.532;19.078;2023-02-12T09:01:55;102115.25;;;7.90;95.96
62124;BME280;48110;47.532;19.078;2023-02-12T09:05:04;102118.56;;;7.30;100.00
62124;BME280;48110;47.532;19.078;2023-02-12T09:08:13;102126.22;;;7.08;100.00
62124;BME280;48110;47.532;19.078;2023-02-12T09:11:24;102121.78;;;6.95;100.00
62124;BME280;48110;47.532;19.078;2023-02-12T09:14:37;102132.25;;;7.22;100.00
62124;BME280;48110;47.532;19.078;2023-02-12T09:17:44;102127.53;;;6.88;100.00
62124;BME280;48110;47.532;19.078;2023-02-12T09:20:53;102143.28;;;6.89;100.00
62124;BME280;48110;47.532;19.078;2023-02-12T09:24:02;102148.00;;;7.11;100.00
62124;BME280;48110;47.532;19.078;2023-02-12T09:27:09;102144.28;;;7.01;100.00
62124;BME280;48110;47.532;19.078;2023-02-12T09:30:17;102143.81;;;6.94;100.00
62124;BME280;48110;47.532;19.078;2023-02-12T09:33:25;102157.09;;;6.93;100.00
62124;BME280;48110;47.532;19.078;2023-02-12T09:36:31;102156.38;;;6.91;100.00
62124;BME280;48110;47.532;19.078;2023-02-12T09:39:39;102153.28;;;7.11;100.00
62124;BME280;48110;47.532;19.078;2023-02-12T09:46:00;102158.84;;;7.07;98.20
62124;BME280;48110;47.532;19.078;2023-02-12T09:49:10;102166.34;;;7.13;98.04
62124;BME280;48110;47.532;19.078;2023-02-12T09:52:23;102161.72;;;7.16;96.86
62124;BME280;48110;47.532;19.078;2023-02-12T09:55:30;102166.16;;;7.16;95.79
62124;BME280;48110;47.532;19.078;2023-02-12T10:01:54;102167.25;;;7.26;93.96
62124;BME280;48110;47.532;19.078;2023-02-12T10:05:02;102166.25;;;7.14;94.85
62124;BME280;48110;47.532;19.078;2023-02-12T10:08:18;102170.69;;;7.26;93.62
62124;BME280;48110;47.532;19.078;2023-02-12T10:21:56;102183.94;;;7.39;91.37
62124;BME280;48110;47.532;19.078;2023-02-12T10:28:33;102201.06;;;7.59;88.90
62124;BME280;48110;47.532;19.078;2023-02-12T10:31:46;102196.53;;;7.73;89.45
62124;BME280;48110;47.532;19.078;2023-02-12T10:34:56;102195.78;;;7.71;87.59
62124;BME280;48110;47.532;19.078;2023-02-12T10:38:12;102188.50;;;7.87;86.24
62124;BME280;48110;47.532;19.078;2023-02-12T10:41:20;102198.56;;;8.08;84.31
62124;BME280;48110;47.532;19.078;2023-02-12T10:44:28;102201.41;;;7.92;82.53
62124;BME280;48110;47.532;19.078;2023-02-12T10:47:34;102202.97;;;7.95;82.62
62124;BME280;48110;47.532;19.078;2023-02-12T10:50:49;102191.97;;;8.01;81.28
62124;BME280;48110;47.532;19.078;2023-02-12T10:53:56;102191.47;;;8.08;81.35
62124;BME280;48110;47.532;19.078;2023-02-12T10:57:26;102193.53;;;8.28;79.66
62124;BME280;48110;47.532;19.078;2023-02-12T11:00:36;102191.44;;;8.34;78.70
62124;BME280;48110;47.532;19.078;2023-02-12T11:03:45;102193.84;;;8.49;77.35
62124;BME280;48110;47.532;19.078;2023-02-12T11:06:59;102191.81;;;8.77;74.96
62124;BME280;48110;47.532;19.078;2023-02-12T11:10:09;102190.88;;;9.36;71.09
62124;BME280;48110;47.532;19.078;2023-02-12T11:13:26;102200.03;;;9.89;67.18
62124;BME280;48110;47.532;19.078;2023-02-12T11:16:39;102194.81;;;9.66;67.26
62124;BME280;48110;47.532;19.078;2023-02-12T11:23:25;102202.22;;;9.38;68.76
62124;BME280;48110;47.532;19.078;2023-02-12T11:26:34;102192.94;;;9.33;67.88
62124;BME280;48110;47.532;19.078;2023-02-12T11:29:43;102201.12;;;9.41;67.60
62124;BME280;48110;47.532;19.078;2023-02-12T11:33:13;102196.44;;;9.90;66.25
62124;BME280;48110;47.532;19.078;2023-02-12T11:36:23;102199.34;;;10.43;63.83
62124;BME280;48110;47.532;19.078;2023-02-12T11:39:32;102195.84;;;10.42;62.75
62124;BME280;48110;47.532;19.078;2023-02-12T11:42:40;102198.66;;;12.88;55.91
62124;BME280;48110;47.532;19.078;2023-02-12T11:45:56;102199.63;;;12.18;56.04
62124;BME280;48110;47.532;19.078;2023-02-12T11:49:07;102203.63;;;13.51;52.43
62124;BME280;48110;47.532;19.078;2023-02-12T11:52:34;102194.69;;;14.25;49.03
62124;BME280;48110;47.532;19.078;2023-02-12T11:55:44;102207.00;;;13.33;50.69
62124;BME280;48110;47.532;19.078;2023-02-12T11:59:07;102203.22;;;12.48;53.68
62124;BME280;48110;47.532;19.078;2023-02-12T12:02:31;102202.59;;;11.95;54.97
62124;BME280;48110;47.532;19.078;2023-02-12T12:05:47;102184.88;;;10.90;57.74
62124;BME280;48110;47.532;19.078;2023-02-12T12:15:25;102191.56;;;9.62;64.04
62124;BME280;48110;47.532;19.078;2023-02-12T12:18:57;102184.69;;;9.59;64.98
62124;BME280;48110;47.532;19.078;2023-02-12T12:25:48;102183.41;;;10.10;63.13
62124;BME280;48110;47.532;19.078;2023-02-12T12:32:04;102172.28;;;11.03;58.75
62124;BME280;48110;47.532;19.078;2023-02-12T12:35:14;102168.84;;;10.15;61.64
62124;BME280;48110;47.532;19.078;2023-02-12T12:38:30;102178.53;;;10.16;61.78
62124;BME280;48110;47.532;19.078;2023-02-12T13:27:34;102178.78;;;10.99;62.39
62124;BME280;48110;47.532;19.078;2023-02-12T13:30:46;102185.38;;;11.16;62.50
62124;BME280;48110;47.532;19.078;2023-02-12T13:33:57;102192.81;;;10.47;63.28
62124;BME280;48110;47.532;19.078;2023-02-12T13:37:08;102193.16;;;9.76;66.49
62124;BME280;48110;47.532;19.078;2023-02-12T13:40:26;102191.56;;;9.73;66.06
62124;BME280;48110;47.532;19.078;2023-02-12T13:43:41;102194.94;;;9.64;67.28
62124;BME280;48110;47.532;19.078;2023-02-12T13:50:26;102199.31;;;9.06;69.22
62124;BME280;48110;47.532;19.078;2023-02-12T13:57:01;102202.56;;;9.34;70.43
62124;BME280;48110;47.532;19.078;2023-02-12T14:03:35;102198.34;;;9.99;66.41
62124;BME280;48110;47.532;19.078;2023-02-12T14:06:51;102215.16;;;9.19;68.37
62124;BME280;48110;47.532;19.078;2023-02-12T14:10:02;102202.44;;;9.35;69.04
62124;BME280;48110;47.532;19.078;2023-02-12T14:13:15;102195.87;;;9.52;68.29
62124;BME280;48110;47.532;19.078;2023-02-12T14:25:58;102204.75;;;9.86;67.10
62124;BME280;48110;47.532;19.078;2023-02-12T14:29:14;102208.09;;;9.31;68.66
62124;BME280;48110;47.532;19.078;2023-02-12T14:33:16;102218.25;;;8.89;71.03
62124;BME280;48110;47.532;19.078;2023-02-12T14:45:39;102220.00;;;8.78;71.12
62124;BME280;48110;47.532;19.078;2023-02-12T14:48:53;102212.44;;;8.60;72.84
62124;BME280;48110;47.532;19.078;2023-02-12T14:52:06;102224.06;;;8.58;73.34
62124;BME280;48110;47.532;19.078;2023-02-12T14:55:23;102229.81;;;8.39;74.29
62124;BME280;48110;47.532;19.078;2023-02-12T14:58:30;102222.03;;;8.12;75.82
62124;BME280;48110;47.532;19.078;2023-02-12T15:01:44;102232.38;;;7.90;78.17
62124;BME280;48110;47.532;19.078;2023-02-12T15:04:56;102224.03;;;7.83;78.74
62124;BME280;48110;47.532;19.078;2023-02-12T15:11:49;102225.78;;;7.70;80.19
62124;BME280;48110;47.532;19.078;2023-02-12T15:15:06;102232.69;;;7.73;80.69
62124;BME280;48110;47.532;19.078;2023-02-12T15:18:27;102226.03;;;7.67;80.99
62124;BME280;48110;47.532;19.078;2023-02-12T15:21:39;102230.44;;;7.79;80.16
62124;BME280;48110;47.532;19.078;2023-02-12T15:24:52;102228.22;;;7.61;81.11
62124;BME280;48110;47.532;19.078;2023-02-12T15:28:02;102230.44;;;7.67;81.71
62124;BME280;48110;47.532;19.078;2023-02-12T15:31:09;102230.34;;;7.68;81.43
62124;BME280;48110;47.532;19.078;2023-02-12T15:34:16;102230.56;;;7.78;80.05
62124;BME280;48110;47.532;19.078;2023-02-12T15:37:27;102229.06;;;7.61;81.14
62124;BME280;48110;47.532;19.078;2023-02-12T15:40:39;102227.88;;;7.40;82.48
62124;BME280;48110;47.532;19.078;2023-02-12T15:44:00;102222.84;;;7.23;83.18
62124;BME280;48110;47.532;19.078;2023-02-12T15:50:15;102238.00;;;6.80;87.17
62124;BME280;48110;47.532;19.078;2023-02-12T15:53:22;102236.28;;;6.52;90.29
62124;BME280;48110;47.532;19.078;2023-02-12T15:56:30;102240.06;;;6.34;92.00
62124;BME280;48110;47.532;19.078;2023-02-12T15:59:38;102243.16;;;6.12;94.53
62124;BME280;48110;47.532;19.078;2023-02-12T16:02:46;102253.69;;;5.98;96.14
62124;BME280;48110;47.532;19.078;2023-02-12T16:06:01;102250.84;;;5.87;98.14
62124;BME280;48110;47.532;19.078;2023-02-12T16:09:16;102260.59;;;5.71;99.61
62124;BME280;48110;47.532;19.078;2023-02-12T16:12:28;102267.22;;;5.62;100.00
62124;BME280;48110;47.532;19.078;2023-02-12T16:15:37;102277.28;;;5.55;100.00
62124;BME280;48110;47.532;19.078;2023-02-12T16:19:06;102285.41;;;5.37;100.00
62124;BME280;48110;47.532;19.078;2023-02-12T16:22:34;102282.91;;;5.34;100.00
62124;BME280;48110;47.532;19.078;2023-02-12T16:25:42;102284.53;;;5.36;100.00
62124;BME280;48110;47.532;19.078;2023-02-12T16:28:54;102292.13;;;5.27;100.00
62124;BME280;48110;47.532;19.078;2023-02-12T16:32:05;102294.50;;;5.15;100.00
62124;BME280;48110;47.532;19.078;2023-02-12T16:41:52;102295.78;;;4.77;100.00
62124;BME280;48110;47.532;19.078;2023-02-12T16:45:40;102303.63;;;4.61;100.00
62124;BME280;48110;47.532;19.078;2023-02-12T16:48:45;102305.22;;;4.48;100.00
62124;BME280;48110;47.532;19.078;2023-02-12T16:55:42;102313.38;;;4.26;100.00
62124;BME280;48110;47.532;19.078;2023-02-12T16:58:51;102327.09;;;4.16;100.00
62124;BME280;48110;47.532;19.078;2023-02-12T17:02:00;102324.97;;;4.22;100.00
62124;BME280;48110;47.532;19.078;2023-02-12T17:05:11;102329.72;;;4.16;100.00
62124;BME280;48110;47.532;19.078;2023-02-12T17:08:25;102327.41;;;4.10;100.00
62124;BME280;48110;47.532;19.078;2023-02-12T17:11:36;102334.06;;;4.00;100.00
62124;BME280;48110;47.532;19.078;2023-02-12T17:14:45;102335.13;;;3.96;100.00
62124;BME280;48110;47.532;19.078;2023-02-12T17:17:55;102333.28;;;3.80;100.00
62124;BME280;48110;47.532;19.078;2023-02-12T17:21:02;102335.13;;;3.78;100.00
62124;BME280;48110;47.532;19.078;2023-02-12T17:24:18;102330.19;;;3.72;100.00
62124;BME280;48110;47.532;19.078;2023-02-12T17:27:25;102331.34;;;3.67;100.00
62124;BME280;48110;47.532;19.078;2023-02-12T17:30:32;102340.59;;;3.57;100.00
62124;BME280;48110;47.532;19.078;2023-02-12T17:33:39;102340.72;;;3.54;100.00
62124;BME280;48110;47.532;19.078;2023-02-12T17:36:46;102334.87;;;3.48;100.00
62124;BME280;48110;47.532;19.078;2023-02-12T17:39:55;102331.75;;;3.40;100.00
62124;BME280;48110;47.532;19.078;2023-02-12T17:43:05;102333.62;;;3.38;100.00
62124;BME280;48110;47.532;19.078;2023-02-12T17:46:13;102340.62;;;3.38;100.00
62124;BME280;48110;47.532;19.078;2023-02-12T17:49:24;102341.09;;;3.29;100.00
62124;BME280;48110;47.532;19.078;2023-02-12T17:52:34;102346.84;;;3.18;100.00
62124;BME280;48110;47.532;19.078;2023-02-12T17:55:44;102351.66;;;3.09;100.00
62124;BME280;48110;47.532;19.078;2023-02-12T17:58:57;102351.25;;;2.99;100.00
62124;BME280;48110;47.532;19.078;2023-02-12T18:02:06;102356.59;;;2.96;100.00
62124;BME280;48110;47.532;19.078;2023-02-12T18:05:17;102360.38;;;2.90;100.00
62124;BME280;48110;47.532;19.078;2023-02-12T18:08:24;102364.78;;;2.90;100.00
62124;BME280;48110;47.532;19.078;2023-02-12T18:11:31;102362.50;;;2.82;100.00
62124;BME280;48110;47.532;19.078;2023-02-12T18:14:40;102359.59;;;2.70;100.00
62124;BME280;48110;47.532;19.078;2023-02-12T18:17:45;102367.78;;;2.62;100.00
62124;BME280;48110;47.532;19.078;2023-02-12T18:20:55;102366.34;;;2.55;100.00
62124;BME280;48110;47.532;19.078;2023-02-12T18:24:06;102366.47;;;2.52;100.00
62124;BME280;48110;47.532;19.078;2023-02-12T18:27:14;102383.00;;;2.54;100.00
62124;BME280;48110;47.532;19.078;2023-02-12T18:30:23;102380.84;;;2.43;100.00
62124;BME280;48110;47.532;19.078;2023-02-12T18:33:31;102382.22;;;2.32;100.00
62124;BME280;48110;47.532;19.078;2023-02-12T18:36:38;102379.00;;;2.25;100.00
62124;BME280;48110;47.532;19.078;2023-02-12T18:39:46;102385.50;;;2.16;100.00
62124;BME280;48110;47.532;19.078;2023-02-12T18:42:54;102388.38;;;2.10;100.00
62124;BME280;48110;47.532;19.078;2023-02-12T18:46:09;102389.47;;;2.05;100.00
62124;BME280;48110;47.532;19.078;2023-02-12T18:49:17;102383.66;;;1.98;100.00
62124;BME280;48110;47.532;19.078;2023-02-12T18:52:24;102388.25;;;1.93;100.00
62124;BME280;48110;47.532;19.078;2023-02-12T18:55:39;102390.31;;;1.85;100.00
62124;BME280;48110;47.532;19.078;2023-02-12T18:58:52;102391.53;;;1.77;100.00
62124;BME280;48110;47.532;19.078;2023-02-12T19:02:01;102395.19;;;1.72;100.00
62124;BME280;48110;47.532;19.078;2023-02-12T19:05:09;102393.63;;;1.68;100.00
62124;BME280;48110;47.532;19.078;2023-02-12T19:08:16;102397.28;;;1.64;100.00
62124;BME280;48110;47.532;19.078;2023-02-12T19:11:23;102407.00;;;1.61;100.00
62124;BME280;48110;47.532;19.078;2023-02-12T19:14:32;102401.00;;;1.59;100.00